createdAt,value
2018-02-24T00:00:34.691Z,60.53
2018-02-24T00:03:02.109Z,60.69
2018-02-24T00:05:29.524Z,60.67
2018-02-24T00:07:56.944Z,60.72
2018-02-24T00:10:24.358Z,61.20
2018-02-24T00:12:51.784Z,60.79
2018-02-24T00:15:19.189Z,61.04
2018-02-24T00:17:46.615Z,61.76
2018-02-24T00:20:14.019Z,61.50
2018-02-24T00:22:44.137Z,62.00
2018-02-24T00:25:11.549Z,62.36
2018-02-24T00:27:38.969Z,61.42
2018-02-24T00:30:06.382Z,62.14
2018-02-24T00:32:33.805Z,61.58
2018-02-24T00:35:01.217Z,61.93
2018-02-24T00:37:28.639Z,61.90
2018-02-24T00:39:56.044Z,62.32
2018-02-24T00:42:23.477Z,62.45
2018-02-24T00:44:50.889Z,62.72
2018-02-24T00:47:18.300Z,63.08
2018-02-24T00:49:45.724Z,63.19
2018-02-24T00:52:14.040Z,62.97
2018-02-24T00:54:41.460Z,63.03
2018-02-24T00:57:08.861Z,63.38
2018-02-24T00:59:36.288Z,63.43
2018-02-24T01:02:03.700Z,63.86
2018-02-24T01:04:31.121Z,64.17
2018-02-24T01:06:58.553Z,63.88
2018-02-24T01:09:25.976Z,63.76
2018-02-24T01:11:53.375Z,64.06
2018-02-24T01:14:20.798Z,63.99
2018-02-24T01:16:48.209Z,63.94
2018-02-24T01:19:15.632Z,63.50
2018-02-24T01:21:43.041Z,63.76
2018-02-24T01:24:10.461Z,63.72
2018-02-24T01:26:37.885Z,63.87
2018-02-24T01:29:05.305Z,63.86
2018-02-24T01:31:32.717Z,64.46
2018-02-24T01:34:00.144Z,63.98
2018-02-24T01:36:27.554Z,63.64
2018-02-24T01:38:54.975Z,63.72
2018-02-24T01:41:22.397Z,64.69
2018-02-24T01:43:49.819Z,63.77
2018-02-24T01:46:17.229Z,64.26
2018-02-24T01:48:44.649Z,64.15
2018-02-24T01:51:12.064Z,64.96
2018-02-24T01:53:39.485Z,64.07
2018-02-24T01:56:06.906Z,64.07
2018-02-24T01:58:34.325Z,64.57
2018-02-24T02:01:01.738Z,64.73
2018-02-24T02:03:29.155Z,64.62
2018-02-24T02:05:56.564Z,65.23
2018-02-24T02:08:23.979Z,65.60
2018-02-24T02:10:51.392Z,65.39
2018-02-24T02:13:18.808Z,65.50
2018-02-24T02:15:46.228Z,64.97
2018-02-24T02:18:13.628Z,65.02
2018-02-24T02:20:41.053Z,65.52
2018-02-24T02:23:08.461Z,66.03
2018-02-24T02:25:35.889Z,65.61
2018-02-24T02:28:03.292Z,65.85
2018-02-24T02:30:30.705Z,65.19
2018-02-24T02:32:58.121Z,65.75
2018-02-24T02:35:25.545Z,65.69
2018-02-24T02:37:52.945Z,66.04
2018-02-24T02:40:20.372Z,65.63
2018-02-24T02:42:47.789Z,65.85
2018-02-24T02:45:15.219Z,66.53
2018-02-24T02:47:42.640Z,66.97
2018-02-24T02:50:10.055Z,66.76
2018-02-24T02:52:37.468Z,67.29
2018-02-24T02:55:04.889Z,67.11
2018-02-24T02:57:32.302Z,66.85
2018-02-24T02:59:59.725Z,67.16
2018-02-24T03:02:27.130Z,67.86
2018-02-24T03:04:54.551Z,66.97
2018-02-24T03:07:21.969Z,66.80
2018-02-24T03:09:49.381Z,66.93
2018-02-24T03:12:16.789Z,67.50
2018-02-24T03:14:44.208Z,67.35
2018-02-24T03:17:11.632Z,67.64
2018-02-24T03:19:39.049Z,68.24
2018-02-24T03:22:06.460Z,68.22
2018-02-24T03:24:33.887Z,68.26
2018-02-24T03:27:01.300Z,67.95
2018-02-24T03:29:28.712Z,67.95
2018-02-24T03:31:56.122Z,67.98
2018-02-24T03:34:23.551Z,68.22
2018-02-24T03:36:51.522Z,68.63
2018-02-24T03:39:18.927Z,68.67
2018-02-24T03:41:46.345Z,68.83
2018-02-24T03:44:13.773Z,68.87
2018-02-24T03:46:41.176Z,68.60
2018-02-24T03:49:08.607Z,69.03
2018-02-24T03:51:36.014Z,68.92
2018-02-24T03:54:03.416Z,68.74
2018-02-24T03:56:30.846Z,68.80
2018-02-24T03:58:58.252Z,69.15
2018-02-24T04:01:25.674Z,69.48
2018-02-24T04:03:53.170Z,69.70
2018-02-24T04:06:20.584Z,69.80
2018-02-24T04:08:47.998Z,69.60
2018-02-24T04:11:15.418Z,70.11
2018-02-24T04:13:42.825Z,69.87
2018-02-24T04:16:10.253Z,70.01
2018-02-24T04:18:37.670Z,69.98
2018-02-24T04:21:05.088Z,69.71
2018-02-24T04:23:32.500Z,69.71
2018-02-24T04:25:59.920Z,69.68
2018-02-24T04:28:27.320Z,70.00
2018-02-24T04:30:54.744Z,69.75
2018-02-24T04:33:22.150Z,69.88
2018-02-24T04:35:49.573Z,70.16
2018-02-24T04:38:16.980Z,70.04
2018-02-24T04:40:44.397Z,69.91
2018-02-24T04:43:11.821Z,70.42
2018-02-24T04:45:39.236Z,70.78
2018-02-24T04:48:06.665Z,71.24
2018-02-24T04:50:34.086Z,71.41
2018-02-24T04:53:01.499Z,71.29
2018-02-24T04:55:28.936Z,71.51
2018-02-24T04:57:56.345Z,71.94
2018-02-24T05:00:24.707Z,71.82
2018-02-24T05:02:52.118Z,71.69
2018-02-24T05:05:19.538Z,72.44
2018-02-24T05:07:46.951Z,72.90
2018-02-24T05:10:14.390Z,72.53
2018-02-24T05:12:41.793Z,72.84
2018-02-24T05:15:09.212Z,73.21
2018-02-24T05:17:36.632Z,73.42
2018-02-24T05:20:04.045Z,73.29
2018-02-24T05:22:31.459Z,72.75
2018-02-24T05:24:58.874Z,72.28
2018-02-24T05:27:26.284Z,72.23
2018-02-24T05:29:53.705Z,71.81
2018-02-24T05:32:21.116Z,72.20
2018-02-24T05:34:48.525Z,72.43
2018-02-24T05:37:15.946Z,72.37
2018-02-24T05:42:17.149Z,71.84
2018-02-24T05:44:44.553Z,71.65
2018-02-24T05:47:11.978Z,71.32
2018-02-24T05:49:39.389Z,71.35
2018-02-24T05:52:06.808Z,71.84
2018-02-24T05:54:34.225Z,72.13
2018-02-24T05:57:01.638Z,72.14
2018-02-24T05:59:29.048Z,72.60
2018-02-24T06:01:56.469Z,72.30
2018-02-24T06:04:23.889Z,72.23
2018-02-24T06:06:51.313Z,72.36
2018-02-24T06:09:18.715Z,72.15
2018-02-24T06:11:46.141Z,72.49
2018-02-24T06:14:13.553Z,72.33
2018-02-24T06:16:40.979Z,72.39
2018-02-24T06:19:08.392Z,72.51
2018-02-24T06:21:35.816Z,72.59
2018-02-24T06:24:03.220Z,72.56
2018-02-24T06:26:30.646Z,73.37
2018-02-24T06:28:58.065Z,73.32
2018-02-24T06:31:25.485Z,73.69
2018-02-24T06:33:52.906Z,73.46
2018-02-24T06:36:20.323Z,73.40
2018-02-24T06:38:47.732Z,73.29
2018-02-24T06:41:15.145Z,73.06
2018-02-24T06:43:42.570Z,73.24
2018-02-24T06:46:09.991Z,73.32
2018-02-24T06:48:37.402Z,73.28
2018-02-24T06:51:04.821Z,73.45
2018-02-24T06:56:06.128Z,73.61
2018-02-24T06:58:33.548Z,73.47
2018-02-24T07:01:00.973Z,72.83
2018-02-24T07:03:28.386Z,72.87
2018-02-24T07:05:55.801Z,72.27
2018-02-24T07:08:23.228Z,72.37
2018-02-24T07:10:50.642Z,72.32
2018-02-24T07:13:18.061Z,72.54
2018-02-24T07:15:45.474Z,71.79
2018-02-24T07:18:12.888Z,72.14
2018-02-24T07:20:40.297Z,71.30
2018-02-24T07:23:07.722Z,71.09
2018-02-24T07:25:35.129Z,70.96
2018-02-24T07:28:02.537Z,71.21
2018-02-24T07:30:29.963Z,71.37
2018-02-24T07:32:57.382Z,69.98
2018-02-24T07:35:24.792Z,70.19
2018-02-24T07:37:52.209Z,70.13
2018-02-24T07:40:19.622Z,70.04
2018-02-24T07:42:47.036Z,70.15
2018-02-24T07:45:14.449Z,69.70
2018-02-24T07:47:41.882Z,68.93
2018-02-24T07:50:09.288Z,69.39
2018-02-24T07:52:36.713Z,69.15
2018-02-24T07:55:04.124Z,67.98
2018-02-24T07:57:31.542Z,67.91
2018-02-24T07:59:58.976Z,67.67
2018-02-24T08:02:26.404Z,67.90
2018-02-24T08:04:53.826Z,66.86
2018-02-24T08:07:21.241Z,67.37
2018-02-24T08:09:48.655Z,66.66
2018-02-24T08:12:16.065Z,65.79
2018-02-24T08:14:43.479Z,65.94
2018-02-24T08:17:10.897Z,64.88
2018-02-24T08:19:38.310Z,64.68
2018-02-24T08:22:05.738Z,63.91
2018-02-24T08:24:33.137Z,63.75
2018-02-24T08:27:00.984Z,63.69
2018-02-24T08:29:28.397Z,63.50
2018-02-24T08:31:55.841Z,63.42
2018-02-24T08:34:23.261Z,63.18
2018-02-24T08:36:50.678Z,63.00
2018-02-24T08:39:18.099Z,60.90
2018-02-24T08:41:45.513Z,60.30
2018-02-24T08:44:12.931Z,60.23
2018-02-24T08:46:40.342Z,59.03
2018-02-24T08:49:07.760Z,59.96
2018-02-24T08:51:35.185Z,59.42
2018-02-24T08:54:02.616Z,59.25
2018-02-24T08:56:30.027Z,57.62
2018-02-24T08:58:57.451Z,58.10
2018-02-24T09:01:24.871Z,57.14
2018-02-24T09:03:52.290Z,56.38
2018-02-24T09:06:19.695Z,55.67
2018-02-24T09:08:47.119Z,55.91
2018-02-24T09:11:14.540Z,55.85
2018-02-24T09:13:41.955Z,54.46
2018-02-24T09:16:09.369Z,54.44
2018-02-24T09:18:37.050Z,53.73
2018-02-24T09:21:04.469Z,54.45
2018-02-24T09:23:32.933Z,52.92
2018-02-24T09:26:00.341Z,52.61
2018-02-24T09:28:27.757Z,53.58
2018-02-24T09:30:55.173Z,53.24
2018-02-24T09:33:22.599Z,50.33
2018-02-24T09:35:50.009Z,51.71
2018-02-24T09:38:17.429Z,50.82
2018-02-24T09:40:44.842Z,51.29
2018-02-24T09:43:12.258Z,49.80
2018-02-24T09:45:39.669Z,50.46
2018-02-24T09:48:07.088Z,48.31
2018-02-24T09:50:34.510Z,49.97
2018-02-24T09:53:01.917Z,49.71
2018-02-24T09:55:29.316Z,49.05
2018-02-24T09:57:56.747Z,48.75
2018-02-24T10:00:24.148Z,47.12
2018-02-24T10:02:51.564Z,47.55
2018-02-24T10:05:18.968Z,46.42
2018-02-24T10:07:46.392Z,44.79
2018-02-24T10:10:13.793Z,45.46
2018-02-24T10:12:41.197Z,45.86
2018-02-24T10:15:08.618Z,45.91
2018-02-24T10:17:36.022Z,44.80
2018-02-24T10:20:03.440Z,43.45
2018-02-24T10:22:30.844Z,44.59
2018-02-24T10:24:58.315Z,43.15
2018-02-24T10:27:25.681Z,44.54
2018-02-24T10:29:53.102Z,43.04
2018-02-24T10:32:20.506Z,42.21
2018-02-24T10:34:47.928Z,42.67
2018-02-24T10:37:15.350Z,43.13
2018-02-24T10:39:42.765Z,40.85
2018-02-24T10:42:10.174Z,42.23
2018-02-24T10:44:37.590Z,42.03
2018-02-24T10:47:05.004Z,40.20
2018-02-24T10:49:32.409Z,42.43
2018-02-24T10:51:59.816Z,40.11
2018-02-24T10:54:27.238Z,39.24
2018-02-24T10:56:54.636Z,39.58
2018-02-24T10:59:22.061Z,39.23
2018-02-24T11:01:49.469Z,37.77
2018-02-24T11:04:16.888Z,39.15
2018-02-24T11:06:44.299Z,38.09
2018-02-24T11:09:11.713Z,37.56
2018-02-24T11:11:39.121Z,38.15
2018-02-24T11:14:07.393Z,38.39
2018-02-24T11:16:34.797Z,37.40
2018-02-24T11:19:02.218Z,40.13
2018-02-24T11:21:29.616Z,39.23
2018-02-24T11:23:57.033Z,37.08
2018-02-24T11:26:24.433Z,37.46
2018-02-24T11:28:51.859Z,35.18
2018-02-24T11:31:19.293Z,35.29
2018-02-24T11:33:46.697Z,35.86
2018-02-24T11:36:14.095Z,36.97
2018-02-24T11:38:41.502Z,36.67
2018-02-24T11:41:08.914Z,36.04
2018-02-24T11:43:36.335Z,34.46
2018-02-24T11:46:03.743Z,36.41
2018-02-24T11:48:31.152Z,37.54
2018-02-24T11:50:58.571Z,36.17
2018-02-24T11:53:25.969Z,37.19
2018-02-24T11:55:53.385Z,34.24
2018-02-24T11:58:20.793Z,34.53
2018-02-24T12:00:48.205Z,33.96
2018-02-24T12:03:15.614Z,34.65
2018-02-24T12:05:43.037Z,33.20
2018-02-24T12:08:10.432Z,35.58
2018-02-24T12:10:37.848Z,34.49
2018-02-24T12:13:05.261Z,35.74
2018-02-24T12:15:32.668Z,33.79
2018-02-24T12:18:00.091Z,33.11
2018-02-24T12:20:27.502Z,34.01
2018-02-24T12:22:54.906Z,33.51
2018-02-24T12:25:22.328Z,32.74
2018-02-24T12:27:49.742Z,32.32
2018-02-24T12:30:17.153Z,32.50
2018-02-24T12:32:44.558Z,33.94
2018-02-24T12:35:11.975Z,33.38
2018-02-24T12:37:39.382Z,34.08
2018-02-24T12:40:06.805Z,31.25
2018-02-24T12:42:34.205Z,34.53
2018-02-24T12:45:01.633Z,33.67
2018-02-24T12:47:29.033Z,32.77
2018-02-24T12:49:56.661Z,32.70
2018-02-24T12:52:23.862Z,31.68
2018-02-24T12:54:51.282Z,32.16
2018-02-24T12:57:18.689Z,32.58
2018-02-24T12:59:46.117Z,32.10
2018-02-24T13:02:13.563Z,31.81
2018-02-24T13:04:41.755Z,33.32
2018-02-24T13:07:09.154Z,32.29
2018-02-24T13:09:36.569Z,32.49
2018-02-24T13:12:03.976Z,32.88
2018-02-24T13:14:31.386Z,33.42
2018-02-24T13:16:58.880Z,32.27
2018-02-24T13:19:26.285Z,31.60
2018-02-24T13:21:53.958Z,32.65
2018-02-24T13:24:21.348Z,34.27
2018-02-24T13:26:48.756Z,33.09
2018-02-24T13:29:16.166Z,33.82
2018-02-24T13:31:43.577Z,34.45
2018-02-24T13:34:10.986Z,34.60
2018-02-24T13:36:38.634Z,34.07
2018-02-24T13:39:06.041Z,33.94
2018-02-24T13:41:33.456Z,34.82
2018-02-24T13:44:00.860Z,34.57
2018-02-24T13:46:28.279Z,35.19
2018-02-24T13:48:55.677Z,34.91
2018-02-24T13:51:23.100Z,36.02
2018-02-24T13:53:50.501Z,35.64
2018-02-24T13:56:17.918Z,36.07
2018-02-24T13:58:45.313Z,35.70
2018-02-24T14:01:12.731Z,35.32
2018-02-24T14:03:40.141Z,35.12
2018-02-24T14:06:07.555Z,35.04
2018-02-24T14:08:34.954Z,36.02
2018-02-24T14:11:02.373Z,35.51
2018-02-24T14:13:29.785Z,37.32
2018-02-24T14:15:57.197Z,35.43
2018-02-24T14:18:24.600Z,36.13
2018-02-24T14:20:52.010Z,35.60
2018-02-24T14:23:19.419Z,35.95
2018-02-24T14:25:46.833Z,35.77
2018-02-24T14:28:15.207Z,35.94
2018-02-24T14:30:42.629Z,35.45
2018-02-24T14:33:10.028Z,36.44
2018-02-24T14:35:37.442Z,35.84
2018-02-24T14:38:04.836Z,36.32
2018-02-24T14:40:32.273Z,36.31
2018-02-24T14:42:59.664Z,36.46
2018-02-24T14:45:27.069Z,36.07
2018-02-24T14:47:54.473Z,36.53
2018-02-24T14:50:21.882Z,36.92
2018-02-24T14:52:49.292Z,37.44
2018-02-24T14:55:16.701Z,36.57
2018-02-24T14:57:44.121Z,36.87
2018-02-24T15:00:11.521Z,38.55
2018-02-24T15:02:38.944Z,37.67
2018-02-24T15:05:06.339Z,36.91
2018-02-24T15:07:33.764Z,37.96
2018-02-24T15:10:01.160Z,37.35
2018-02-24T15:12:28.568Z,37.65
2018-02-24T15:14:55.973Z,38.64
2018-02-24T15:17:23.392Z,37.92
2018-02-24T15:19:50.797Z,38.62
2018-02-24T15:22:18.219Z,38.28
2018-02-24T15:24:45.609Z,37.97
2018-02-24T15:27:13.022Z,38.31
2018-02-24T15:29:40.412Z,38.07
2018-02-24T15:32:07.835Z,39.08
2018-02-24T15:34:35.228Z,38.83
2018-02-24T15:37:02.666Z,39.53
2018-02-24T15:39:30.058Z,40.14
2018-02-24T15:41:57.470Z,38.96
2018-02-24T15:44:24.869Z,38.84
2018-02-24T15:46:52.293Z,39.37
2018-02-24T15:49:19.690Z,39.61
2018-02-24T15:51:47.106Z,40.01
2018-02-24T15:54:14.509Z,40.34
2018-02-24T15:56:41.921Z,40.30
2018-02-24T15:59:09.329Z,40.81
2018-02-24T16:01:36.741Z,41.22
2018-02-24T16:04:04.155Z,41.03
2018-02-24T16:06:31.564Z,41.61
2018-02-24T16:08:59.006Z,42.96
2018-02-24T16:11:26.416Z,43.30
2018-02-24T16:13:53.820Z,43.33
2018-02-24T16:16:21.232Z,42.36
2018-02-24T16:18:48.633Z,42.94
2018-02-24T16:21:16.037Z,44.10
2018-02-24T16:23:43.445Z,45.40
2018-02-24T16:26:10.848Z,45.59
2018-02-24T16:28:38.257Z,45.46
2018-02-24T16:31:05.670Z,46.25
2018-02-24T16:33:33.076Z,46.82
2018-02-24T16:36:00.489Z,46.33
2018-02-24T16:38:27.899Z,46.50
2018-02-24T16:40:55.298Z,47.32
2018-02-24T16:43:22.705Z,46.91
2018-02-24T16:45:50.117Z,47.57
2018-02-24T16:48:17.522Z,48.10
2018-02-24T16:50:44.923Z,48.50
2018-02-24T16:53:12.338Z,49.00
2018-02-24T16:55:39.735Z,49.44
2018-02-24T16:58:07.139Z,49.63
2018-02-24T17:00:34.536Z,48.12
2018-02-24T17:03:01.941Z,48.76
2018-02-24T17:05:29.340Z,48.18
2018-02-24T17:07:56.749Z,47.63
2018-02-24T17:10:24.149Z,48.22
2018-02-24T17:12:51.537Z,49.01
2018-02-24T17:15:18.935Z,47.76
2018-02-24T17:17:46.343Z,47.95
2018-02-24T17:20:13.783Z,48.50
2018-02-24T17:22:41.160Z,48.01
2018-02-24T17:25:08.605Z,48.29
2018-02-24T17:27:35.973Z,48.25
2018-02-24T17:30:03.365Z,48.84
2018-02-24T17:32:31.214Z,48.90
2018-02-24T17:34:58.588Z,49.24
2018-02-24T17:37:25.994Z,49.54
2018-02-24T17:39:53.417Z,49.75
2018-02-24T17:42:20.830Z,49.44
2018-02-24T17:44:48.221Z,49.51
2018-02-24T17:47:16.209Z,49.21
2018-02-24T17:49:43.617Z,49.37
2018-02-24T17:52:11.005Z,49.88
2018-02-24T17:54:38.416Z,49.70
2018-02-24T17:57:05.813Z,49.49
2018-02-24T17:59:33.571Z,50.21
2018-02-24T18:02:00.965Z,51.20
2018-02-24T18:04:28.364Z,52.42
2018-02-24T18:06:55.752Z,51.48
2018-02-24T18:09:23.157Z,51.80
2018-02-24T18:11:50.554Z,52.27
2018-02-24T18:14:17.948Z,53.27
2018-02-24T18:16:45.341Z,53.31
2018-02-24T18:19:12.734Z,51.39
2018-02-24T18:21:40.132Z,50.52
2018-02-24T18:24:07.545Z,50.29
2018-02-24T18:26:34.945Z,49.64
2018-02-24T18:29:02.357Z,49.36
2018-02-24T18:31:30.075Z,48.99
2018-02-24T18:33:57.476Z,50.10
2018-02-24T18:36:24.941Z,49.11
2018-02-24T18:38:52.377Z,48.75
2018-02-24T18:41:19.745Z,48.71
2018-02-24T18:43:47.148Z,48.74
2018-02-24T18:46:14.546Z,47.59
2018-02-24T18:48:41.944Z,47.49
2018-02-24T18:51:09.341Z,47.24
2018-02-24T18:53:36.736Z,45.70
2018-02-24T18:56:04.133Z,46.16
2018-02-24T18:58:31.541Z,46.84
2018-02-24T19:00:58.991Z,46.40
2018-02-24T19:03:26.395Z,46.98
2018-02-24T19:05:53.793Z,47.88
2018-02-24T19:08:21.194Z,49.36
2018-02-24T19:10:48.611Z,48.65
2018-02-24T19:13:16.010Z,48.95
2018-02-24T19:15:43.427Z,48.76
2018-02-24T19:18:10.822Z,47.83
2018-02-24T19:20:38.238Z,48.92
2018-02-24T19:23:05.639Z,49.15
2018-02-24T19:25:33.058Z,48.76
2018-02-24T19:28:00.465Z,46.60
2018-02-24T19:30:27.869Z,47.85
2018-02-24T19:32:55.271Z,46.69
2018-02-24T19:35:22.672Z,46.21
2018-02-24T19:37:50.074Z,44.87
2018-02-24T19:40:17.476Z,44.80
2018-02-24T19:42:44.875Z,45.04
2018-02-24T19:45:12.305Z,44.25
2018-02-24T19:47:39.688Z,44.36
2018-02-24T19:50:07.106Z,44.54
2018-02-24T19:52:34.518Z,44.19
2018-02-24T19:55:01.916Z,45.81
2018-02-24T19:57:29.317Z,45.62
2018-02-24T19:59:57.297Z,44.95
2018-02-24T20:02:24.706Z,45.55
2018-02-24T20:04:52.114Z,45.02
2018-02-24T20:07:19.513Z,46.27
2018-02-24T20:09:46.920Z,46.16
2018-02-24T20:12:14.321Z,46.65
2018-02-24T20:14:41.708Z,47.85
2018-02-24T20:17:09.125Z,46.79
2018-02-24T20:19:36.530Z,47.60
2018-02-24T20:22:03.946Z,48.49
2018-02-24T20:24:31.341Z,49.22
2018-02-24T20:26:58.777Z,49.21
2018-02-24T20:29:26.162Z,50.39
2018-02-24T20:31:53.577Z,50.43
2018-02-24T20:34:20.982Z,51.20
2018-02-24T20:36:48.398Z,51.77
2018-02-24T20:39:15.807Z,52.97
2018-02-24T20:41:43.216Z,52.81
2018-02-24T20:44:10.618Z,51.35
2018-02-24T20:46:38.037Z,51.45
2018-02-24T20:49:05.430Z,51.72
2018-02-24T20:51:32.847Z,51.85
2018-02-24T20:54:00.244Z,51.92
2018-02-24T20:56:27.666Z,49.35
2018-02-24T20:58:55.062Z,48.14
2018-02-24T21:01:22.468Z,48.25
2018-02-24T21:03:49.869Z,48.16
2018-02-24T21:06:17.291Z,47.17
2018-02-24T21:08:44.693Z,47.35
2018-02-24T21:11:12.095Z,46.88
2018-02-24T21:13:39.489Z,46.81
2018-02-24T21:16:06.902Z,48.39
2018-02-24T21:18:34.301Z,48.21
2018-02-24T21:21:01.706Z,48.89
2018-02-24T21:23:29.930Z,49.25
2018-02-24T21:25:57.634Z,48.06
2018-02-24T21:28:25.032Z,48.36
2018-02-24T21:30:52.450Z,49.94
2018-02-24T21:33:19.850Z,49.77
2018-02-24T21:35:47.264Z,49.86
2018-02-24T21:38:14.658Z,51.15
2018-02-24T21:40:42.230Z,48.49
2018-02-24T21:43:09.637Z,49.53
2018-02-24T21:45:37.033Z,47.80
2018-02-24T21:48:04.497Z,48.66
2018-02-24T21:50:32.161Z,48.29
2018-02-24T21:53:00.461Z,47.86
2018-02-24T21:55:27.860Z,49.43
2018-02-24T21:57:55.265Z,48.26
2018-02-24T22:02:40.054Z,49.58
2018-02-24T22:05:07.449Z,49.53
2018-02-24T22:07:34.866Z,50.53
2018-02-24T22:10:02.264Z,49.80
2018-02-24T22:12:29.693Z,49.66
2018-02-24T22:14:57.097Z,49.76
2018-02-24T22:17:24.512Z,48.52
2018-02-24T22:19:51.911Z,49.36
2018-02-24T22:22:19.476Z,48.86
2018-02-24T22:24:46.872Z,49.38
2018-02-24T22:27:14.293Z,49.22
2018-02-24T22:29:41.706Z,50.12
2018-02-24T22:32:09.124Z,50.28
2018-02-24T22:34:36.533Z,49.91
2018-02-24T22:37:03.956Z,50.07
2018-02-24T22:39:31.365Z,49.65
2018-02-24T22:41:58.783Z,50.08
2018-02-24T22:44:26.214Z,49.48
2018-02-24T22:46:53.627Z,49.70
2018-02-24T22:49:21.042Z,50.60
2018-02-24T22:51:48.450Z,51.44
2018-02-24T22:54:15.858Z,50.11
2018-02-24T22:56:43.919Z,51.96
2018-02-24T22:59:11.328Z,51.79
2018-02-24T23:01:38.743Z,52.80
2018-02-24T23:04:06.143Z,53.89
2018-02-24T23:06:33.540Z,53.35
2018-02-24T23:09:00.951Z,53.92
2018-02-24T23:11:28.349Z,52.54
2018-02-24T23:13:55.764Z,51.72
2018-02-24T23:16:23.214Z,51.74
2018-02-24T23:18:50.598Z,52.89
2018-02-24T23:21:17.993Z,51.70
2018-02-24T23:23:45.405Z,50.74
2018-02-24T23:26:12.812Z,52.07
2018-02-24T23:28:40.227Z,51.81
2018-02-24T23:31:07.682Z,51.03
2018-02-24T23:33:35.038Z,52.15
2018-02-24T23:36:02.432Z,52.58
2018-02-24T23:38:29.863Z,52.45
2018-02-24T23:40:57.265Z,52.47
2018-02-24T23:43:25.619Z,52.88
2018-02-24T23:45:53.018Z,51.85
2018-02-24T23:48:20.445Z,53.11
2018-02-24T23:50:47.839Z,53.50
2018-02-24T23:53:15.244Z,53.18
2018-02-24T23:55:42.655Z,54.28
2018-02-24T23:58:10.052Z,54.17
